sensor_id;sensor_type;location;lat;lon;timestamp;pressure;altitude;pressure_sealevel;temperature;humidity
15193;BME280;7697;51.630;7.484;2023-04-25T00:02:13;100172.06;;;7.45;93.91
15193;BME280;7697;51.630;7.484;2023-04-25T00:07:16;100162.34;;;7.46;94.33
15193;BME280;7697;51.630;7.484;2023-04-25T00:12:18;100166.25;;;7.50;94.03
15193;BME280;7697;51.630;7.484;2023-04-25T00:17:21;100170.94;;;7.54;94.38
15193;BME280;7697;51.630;7.484;2023-04-25T00:22:26;100162.66;;;7.58;95.37
15193;BME280;7697;51.630;7.484;2023-04-25T00:27:28;100179.50;;;7.63;95.13
15193;BME280;7697;51.630;7.484;2023-04-25T00:32:29;100180.13;;;7.65;95.72
15193;BME280;7697;51.630;7.484;2023-04-25T00:37:32;100181.81;;;7.73;95.17
15193;BME280;7697;51.630;7.484;2023-04-25T00:42:35;100173.53;;;7.76;96.04
15193;BME280;7697;51.630;7.484;2023-04-25T00:47:38;100168.28;;;7.76;95.93
15193;BME280;7697;51.630;7.484;2023-04-25T00:52:43;100170.78;;;7.84;95.92
15193;BME280;7697;51.630;7.484;2023-04-25T00:57:45;100166.31;;;7.84;96.47
15193;BME280;7697;51.630;7.484;2023-04-25T01:02:48;100173.25;;;7.92;95.42
15193;BME280;7697;51.630;7.484;2023-04-25T01:07:51;100173.88;;;7.94;95.86
15193;BME280;7697;51.630;7.484;2023-04-25T01:12:53;100184.91;;;8.04;95.52
15193;BME280;7697;51.630;7.484;2023-04-25T01:17:55;100188.75;;;8.02;95.96
15193;BME280;7697;51.630;7.484;2023-04-25T01:22:58;100182.22;;;7.98;95.88
15193;BME280;7697;51.630;7.484;2023-04-25T01:28:00;100184.66;;;7.99;96.00
15193;BME280;7697;51.630;7.484;2023-04-25T01:33:03;100181.66;;;8.02;96.53
15193;BME280;7697;51.630;7.484;2023-04-25T01:38:07;100178.81;;;8.04;97.06
15193;BME280;7697;51.630;7.484;2023-04-25T01:43:09;100190.41;;;8.09;96.91
15193;BME280;7697;51.630;7.484;2023-04-25T01:48:13;100194.06;;;8.08;97.21
15193;BME280;7697;51.630;7.484;2023-04-25T01:53:16;100186.16;;;8.08;96.92
15193;BME280;7697;51.630;7.484;2023-04-25T01:58:18;100188.97;;;8.07;97.34
15193;BME280;7697;51.630;7.484;2023-04-25T02:03:20;100198.97;;;8.11;97.56
15193;BME280;7697;51.630;7.484;2023-04-25T02:08:23;100202.22;;;8.13;97.78
15193;BME280;7697;51.630;7.484;2023-04-25T02:13:26;100204.47;;;8.16;97.48
15193;BME280;7697;51.630;7.484;2023-04-25T02:18:28;100216.44;;;8.19;97.78
15193;BME280;7697;51.630;7.484;2023-04-25T02:23:31;100222.53;;;8.19;98.02
15193;BME280;7697;51.630;7.484;2023-04-25T02:28:33;100219.47;;;8.16;97.87
15193;BME280;7697;51.630;7.484;2023-04-25T02:33:34;100219.28;;;8.17;97.85
15193;BME280;7697;51.630;7.484;2023-04-25T02:38:38;100229.41;;;8.14;98.44
15193;BME280;7697;51.630;7.484;2023-04-25T02:43:40;100232.47;;;8.17;98.58
15193;BME280;7697;51.630;7.484;2023-04-25T02:48:41;100228.59;;;8.13;98.66
15193;BME280;7697;51.630;7.484;2023-04-25T02:53:45;100251.75;;;8.18;99.60
15193;BME280;7697;51.630;7.484;2023-04-25T02:58:46;100238.09;;;8.14;99.17
15193;BME280;7697;51.630;7.484;2023-04-25T03:03:48;100239.16;;;8.13;99.05
15193;BME280;7697;51.630;7.484;2023-04-25T03:08:51;100242.16;;;8.10;99.33
15193;BME280;7697;51.630;7.484;2023-04-25T03:13:53;100249.06;;;8.11;99.41
15193;BME280;7697;51.630;7.484;2023-04-25T03:18:55;100245.97;;;8.08;99.52
15193;BME280;7697;51.630;7.484;2023-04-25T03:23:59;100251.69;;;8.11;99.10
15193;BME280;7697;51.630;7.484;2023-04-25T03:29:00;100242.94;;;8.04;98.92
15193;BME280;7697;51.630;7.484;2023-04-25T03:34:02;100255.16;;;8.12;99.40
15193;BME280;7697;51.630;7.484;2023-04-25T03:39:06;100254.34;;;8.11;99.76
15193;BME280;7697;51.630;7.484;2023-04-25T03:44:08;100251.06;;;8.09;99.77
15193;BME280;7697;51.630;7.484;2023-04-25T03:49:10;100258.97;;;8.09;99.41
15193;BME280;7697;51.630;7.484;2023-04-25T03:54:13;100266.25;;;8.07;98.71
15193;BME280;7697;51.630;7.484;2023-04-25T03:59:15;100282.53;;;8.11;99.42
15193;BME280;7697;51.630;7.484;2023-04-25T04:04:16;100275.00;;;8.08;99.26
15193;BME280;7697;51.630;7.484;2023-04-25T04:09:20;100280.84;;;8.03;99.84
15193;BME280;7697;51.630;7.484;2023-04-25T04:14:21;100283.66;;;8.02;98.99
15193;BME280;7697;51.630;7.484;2023-04-25T04:19:23;100289.94;;;8.01;99.22
15193;BME280;7697;51.630;7.484;2023-04-25T04:24:26;100284.03;;;7.99;98.91
15193;BME280;7697;51.630;7.484;2023-04-25T04:29:29;100288.50;;;7.98;99.19
15193;BME280;7697;51.630;7.484;2023-04-25T04:34:31;100294.59;;;7.99;98.68
15193;BME280;7697;51.630;7.484;2023-04-25T04:39:35;100298.69;;;8.01;98.47
15193;BME280;7697;51.630;7.484;2023-04-25T04:44:38;100307.59;;;8.00;98.50
15193;BME280;7697;51.630;7.484;2023-04-25T04:49:40;100316.06;;;7.96;97.59
15193;BME280;7697;51.630;7.484;2023-04-25T04:54:44;100316.91;;;7.96;97.99
15193;BME280;7697;51.630;7.484;2023-04-25T04:59:46;100327.69;;;8.01;97.54
15193;BME280;7697;51.630;7.484;2023-04-25T05:04:48;100335.09;;;7.91;96.78
15193;BME280;7697;51.630;7.484;2023-04-25T05:09:53;100342.34;;;7.89;96.55
15193;BME280;7697;51.630;7.484;2023-04-25T05:14:55;100345.25;;;7.94;96.94
15193;BME280;7697;51.630;7.484;2023-04-25T05:19:56;100343.63;;;7.93;96.18
15193;BME280;7697;51.630;7.484;2023-04-25T05:25:00;100359.63;;;7.91;96.05
15193;BME280;7697;51.630;7.484;2023-04-25T05:30:05;100367.00;;;7.96;96.01
15193;BME280;7697;51.630;7.484;2023-04-25T05:35:08;100370.63;;;7.95;96.32
15193;BME280;7697;51.630;7.484;2023-04-25T05:40:11;100375.31;;;8.00;95.42
15193;BME280;7697;51.630;7.484;2023-04-25T05:45:13;100382.28;;;8.07;95.17
15193;BME280;7697;51.630;7.484;2023-04-25T05:50:15;100375.97;;;8.02;94.35
15193;BME280;7697;51.630;7.484;2023-04-25T05:55:18;100383.28;;;8.06;95.01
15193;BME280;7697;51.630;7.484;2023-04-25T06:00:20;100385.22;;;8.12;94.82
15193;BME280;7697;51.630;7.484;2023-04-25T06:05:23;100396.44;;;8.21;95.43
15193;BME280;7697;51.630;7.484;2023-04-25T06:10:26;100413.69;;;8.23;94.57
15193;BME280;7697;51.630;7.484;2023-04-25T06:15:28;100403.91;;;8.17;94.69
15193;BME280;7697;51.630;7.484;2023-04-25T06:20:30;100415.34;;;8.24;94.89
15193;BME280;7697;51.630;7.484;2023-04-25T06:25:33;100428.66;;;8.31;94.74
15193;BME280;7697;51.630;7.484;2023-04-25T06:30:35;100427.44;;;8.34;94.82
15193;BME280;7697;51.630;7.484;2023-04-25T06:35:37;100421.16;;;8.35;94.35
15193;BME280;7697;51.630;7.484;2023-04-25T06:40:40;100419.28;;;8.50;94.23
15193;BME280;7697;51.630;7.484;2023-04-25T06:45:42;100420.16;;;8.57;93.85
15193;BME280;7697;51.630;7.484;2023-04-25T06:50:43;100436.16;;;8.77;93.83
15193;BME280;7697;51.630;7.484;2023-04-25T06:55:46;100442.41;;;8.97;93.57
15193;BME280;7697;51.630;7.484;2023-04-25T07:00:49;100440.69;;;9.11;91.58
15193;BME280;7697;51.630;7.484;2023-04-25T07:05:50;100450.63;;;9.09;91.53
15193;BME280;7697;51.630;7.484;2023-04-25T07:10:54;100441.53;;;9.18;91.59
15193;BME280;7697;51.630;7.484;2023-04-25T07:15:56;100451.50;;;9.22;89.29
15193;BME280;7697;51.630;7.484;2023-04-25T07:20:57;100462.38;;;9.34;89.45
15193;BME280;7697;51.630;7.484;2023-04-25T07:26:00;100448.84;;;9.50;89.06
15193;BME280;7697;51.630;7.484;2023-04-25T07:31:02;100452.72;;;9.54;87.84
15193;BME280;7697;51.630;7.484;2023-04-25T07:36:06;100462.69;;;9.59;86.48
15193;BME280;7697;51.630;7.484;2023-04-25T07:41:09;100457.88;;;9.69;86.70
15193;BME280;7697;51.630;7.484;2023-04-25T07:46:11;100478.22;;;9.68;86.96
15193;BME280;7697;51.630;7.484;2023-04-25T07:51:13;100487.81;;;9.76;87.71
15193;BME280;7697;51.630;7.484;2023-04-25T07:56:16;100482.22;;;9.92;86.48
15193;BME280;7697;51.630;7.484;2023-04-25T08:01:18;100487.56;;;10.12;86.44
15193;BME280;7697;51.630;7.484;2023-04-25T08:06:21;100501.59;;;10.12;83.71
15193;BME280;7697;51.630;7.484;2023-04-25T08:11:25;100500.56;;;10.07;83.20
15193;BME280;7697;51.630;7.484;2023-04-25T08:16:27;100515.31;;;10.23;83.50
15193;BME280;7697;51.630;7.484;2023-04-25T08:21:29;100511.28;;;10.33;81.82
15193;BME280;7697;51.630;7.484;2023-04-25T08:26:33;100517.41;;;10.40;82.06
15193;BME280;7697;51.630;7.484;2023-04-25T08:31:34;100528.63;;;10.42;79.66
15193;BME280;7697;51.630;7.484;2023-04-25T08:36:37;100533.16;;;10.62;80.68
15193;BME280;7697;51.630;7.484;2023-04-25T08:41:40;100547.03;;;10.83;77.56
15193;BME280;7697;51.630;7.484;2023-04-25T08:46:42;100553.78;;;10.86;75.88
15193;BME280;7697;51.630;7.484;2023-04-25T08:51:50;100548.88;;;10.83;72.47
15193;BME280;7697;51.630;7.484;2023-04-25T08:56:56;100562.97;;;10.90;69.63
15193;BME280;7697;51.630;7.484;2023-04-25T09:01:58;100569.28;;;11.02;68.67
15193;BME280;7697;51.630;7.484;2023-04-25T09:07:01;100587.03;;;11.28;69.95
15193;BME280;7697;51.630;7.484;2023-04-25T09:12:05;100581.13;;;11.06;67.93
15193;BME280;7697;51.630;7.484;2023-04-25T09:17:06;100591.09;;;11.11;70.97
15193;BME280;7697;51.630;7.484;2023-04-25T09:22:09;100607.00;;;11.04;70.21
15193;BME280;7697;51.630;7.484;2023-04-25T09:27:18;100606.38;;;11.02;71.06
15193;BME280;7697;51.630;7.484;2023-04-25T09:32:21;100599.25;;;10.96;71.67
15193;BME280;7697;51.630;7.484;2023-04-25T09:37:26;100613.50;;;10.95;70.31
15193;BME280;7697;51.630;7.484;2023-04-25T09:42:29;100609.41;;;10.93;69.20
15193;BME280;7697;51.630;7.484;2023-04-25T09:47:32;100617.59;;;11.11;70.00
15193;BME280;7697;51.630;7.484;2023-04-25T09:52:39;100616.84;;;11.63;69.66
15193;BME280;7697;51.630;7.484;2023-04-25T09:57:43;100625.09;;;12.26;67.77
15193;BME280;7697;51.630;7.484;2023-04-25T10:02:48;100635.78;;;13.08;63.77
15193;BME280;7697;51.630;7.484;2023-04-25T10:07:52;100629.13;;;13.31;61.89
15193;BME280;7697;51.630;7.484;2023-04-25T10:12:56;100633.59;;;13.62;60.14
15193;BME280;7697;51.630;7.484;2023-04-25T10:17:58;100628.19;;;13.93;61.73
15193;BME280;7697;51.630;7.484;2023-04-25T10:23:09;100632.19;;;14.02;58.91
15193;BME280;7697;51.630;7.484;2023-04-25T10:28:14;100639.63;;;13.75;58.39
15193;BME280;7697;51.630;7.484;2023-04-25T10:33:17;100652.34;;;13.48;59.41
15193;BME280;7697;51.630;7.484;2023-04-25T10:38:19;100654.41;;;13.08;60.79
15193;BME280;7697;51.630;7.484;2023-04-25T10:43:36;100658.41;;;12.79;62.61
15193;BME280;7697;51.630;7.484;2023-04-25T10:48:44;100677.09;;;12.66;63.00
15193;BME280;7697;51.630;7.484;2023-04-25T10:53:47;100674.97;;;12.17;59.77
15193;BME280;7697;51.630;7.484;2023-04-25T10:58:50;100695.16;;;11.46;63.82
15193;BME280;7697;51.630;7.484;2023-04-25T11:03:57;100700.00;;;11.09;67.69
15193;BME280;7697;51.630;7.484;2023-04-25T11:09:01;100693.19;;;10.87;69.85
15193;BME280;7697;51.630;7.484;2023-04-25T11:14:04;100696.19;;;10.71;71.52
15193;BME280;7697;51.630;7.484;2023-04-25T11:19:06;100683.97;;;10.76;73.79
15193;BME280;7697;51.630;7.484;2023-04-25T11:24:08;100676.25;;;10.81;70.30
15193;BME280;7697;51.630;7.484;2023-04-25T11:29:13;100674.69;;;11.07;69.64
15193;BME280;7697;51.630;7.484;2023-04-25T11:34:17;100674.56;;;11.48;68.02
15193;BME280;7697;51.630;7.484;2023-04-25T11:39:19;100682.56;;;12.14;64.57
15193;BME280;7697;51.630;7.484;2023-04-25T11:44:22;100684.06;;;12.54;63.17
15193;BME280;7697;51.630;7.484;2023-04-25T11:49:30;100684.59;;;13.27;55.89
15193;BME280;7697;51.630;7.484;2023-04-25T11:54:35;100667.16;;;13.63;55.54
15193;BME280;7697;51.630;7.484;2023-04-25T11:59:38;100672.06;;;14.09;53.79
15193;BME280;7697;51.630;7.484;2023-04-25T12:04:40;100688.94;;;14.64;54.75
15193;BME280;7697;51.630;7.484;2023-04-25T12:09:42;100683.63;;;14.64;52.44
15193;BME280;7697;51.630;7.484;2023-04-25T12:14:46;100680.00;;;14.15;48.30
15193;BME280;7697;51.630;7.484;2023-04-25T12:19:49;100684.38;;;14.10;51.55
15193;BME280;7697;51.630;7.484;2023-04-25T12:24:50;100702.81;;;14.30;53.21
15193;BME280;7697;51.630;7.484;2023-04-25T12:29:56;100700.44;;;14.21;51.83
15193;BME280;7697;51.630;7.484;2023-04-25T12:34:58;100705.03;;;13.89;52.03
15193;BME280;7697;51.630;7.484;2023-04-25T12:39:59;100712.16;;;13.39;50.40
15193;BME280;7697;51.630;7.484;2023-04-25T12:45:03;100719.63;;;13.18;52.02
15193;BME280;7697;51.630;7.484;2023-04-25T12:50:05;100729.06;;;13.07;57.02
15193;BME280;7697;51.630;7.484;2023-04-25T12:55:08;100728.88;;;13.15;59.96
15193;BME280;7697;51.630;7.484;2023-04-25T13:00:12;100723.81;;;13.38;60.27
15193;BME280;7697;51.630;7.484;2023-04-25T13:05:18;100730.69;;;13.52;60.43
15193;BME280;7697;51.630;7.484;2023-04-25T13:10:20;100738.03;;;14.13;61.66
15193;BME280;7697;51.630;7.484;2023-04-25T13:15:23;100726.41;;;14.69;57.89
15193;BME280;7697;51.630;7.484;2023-04-25T13:20:25;100719.88;;;15.01;54.91
15193;BME280;7697;51.630;7.484;2023-04-25T13:25:26;100716.91;;;15.10;55.52
15193;BME280;7697;51.630;7.484;2023-04-25T13:30:30;100720.75;;;14.95;54.72
15193;BME280;7697;51.630;7.484;2023-04-25T13:35:32;100743.66;;;14.23;54.09
15193;BME280;7697;51.630;7.484;2023-04-25T13:40:34;100743.19;;;13.14;57.05
15193;BME280;7697;51.630;7.484;2023-04-25T13:45:39;100744.53;;;12.78;61.07
15193;BME280;7697;51.630;7.484;2023-04-25T13:50:41;100739.03;;;12.67;62.60
15193;BME280;7697;51.630;7.484;2023-04-25T13:55:43;100744.13;;;12.68;63.81
15193;BME280;7697;51.630;7.484;2023-04-25T14:00:46;100747.34;;;12.84;63.10
15193;BME280;7697;51.630;7.484;2023-04-25T14:05:48;100740.78;;;12.93;62.53
15193;BME280;7697;51.630;7.484;2023-04-25T14:10:50;100732.88;;;13.24;62.34
15193;BME280;7697;51.630;7.484;2023-04-25T14:15:53;100737.09;;;13.76;59.97
15193;BME280;7697;51.630;7.484;2023-04-25T14:20:55;100740.38;;;13.72;57.41
15193;BME280;7697;51.630;7.484;2023-04-25T14:25:56;100734.19;;;13.78;56.81
15193;BME280;7697;51.630;7.484;2023-04-25T14:30:59;100735.50;;;14.18;55.44
15193;BME280;7697;51.630;7.484;2023-04-25T14:36:01;100736.03;;;14.52;53.92
15193;BME280;7697;51.630;7.484;2023-04-25T14:41:03;100741.16;;;14.28;52.25
15193;BME280;7697;51.630;7.484;2023-04-25T14:46:07;100755.06;;;13.81;53.09
15193;BME280;7697;51.630;7.484;2023-04-25T14:51:09;100776.50;;;13.17;58.38
15193;BME280;7697;51.630;7.484;2023-04-25T14:56:11;100775.25;;;12.42;59.99
15193;BME280;7697;51.630;7.484;2023-04-25T15:01:15;100775.03;;;11.77;62.73
15193;BME280;7697;51.630;7.484;2023-04-25T15:06:16;100762.44;;;11.32;64.15
15193;BME280;7697;51.630;7.484;2023-04-25T15:11:19;100765.94;;;11.39;63.77
15193;BME280;7697;51.630;7.484;2023-04-25T15:16:23;100772.28;;;11.44;63.29
15193;BME280;7697;51.630;7.484;2023-04-25T15:21:25;100770.47;;;11.64;62.06
15193;BME280;7697;51.630;7.484;2023-04-25T15:26:28;100767.91;;;11.97;61.50
15193;BME280;7697;51.630;7.484;2023-04-25T15:31:31;100772.41;;;12.30;61.37
15193;BME280;7697;51.630;7.484;2023-04-25T15:36:33;100780.78;;;12.40;60.82
15193;BME280;7697;51.630;7.484;2023-04-25T15:41:35;100778.50;;;12.37;61.15
15193;BME280;7697;51.630;7.484;2023-04-25T15:46:38;100776.91;;;12.23;61.20
15193;BME280;7697;51.630;7.484;2023-04-25T15:51:40;100786.50;;;12.04;61.75
15193;BME280;7697;51.630;7.484;2023-04-25T15:56:42;100787.91;;;11.93;62.78
15193;BME280;7697;51.630;7.484;2023-04-25T16:01:46;100791.38;;;11.81;62.23
15193;BME280;7697;51.630;7.484;2023-04-25T16:06:48;100782.53;;;11.67;62.79
15193;BME280;7697;51.630;7.484;2023-04-25T16:11:50;100776.84;;;11.70;63.44
15193;BME280;7697;51.630;7.484;2023-04-25T16:16:53;100782.13;;;11.70;63.00
15193;BME280;7697;51.630;7.484;2023-04-25T16:21:55;100794.41;;;11.71;63.87
15193;BME280;7697;51.630;7.484;2023-04-25T16:26:58;100782.94;;;11.64;64.32
15193;BME280;7697;51.630;7.484;2023-04-25T16:32:02;100781.31;;;11.63;63.42
15193;BME280;7697;51.630;7.484;2023-04-25T16:37:04;100780.50;;;11.69;64.26
15193;BME280;7697;51.630;7.484;2023-04-25T16:42:06;100791.59;;;11.79;64.63
15193;BME280;7697;51.630;7.484;2023-04-25T16:47:09;100794.84;;;11.88;63.34
15193;BME280;7697;51.630;7.484;2023-04-25T16:52:11;100783.81;;;11.84;62.99
15193;BME280;7697;51.630;7.484;2023-04-25T16:57:15;100797.28;;;11.76;62.52
15193;BME280;7697;51.630;7.484;2023-04-25T17:02:18;100800.91;;;11.69;61.89
15193;BME280;7697;51.630;7.484;2023-04-25T17:07:20;100808.25;;;11.60;62.46
15193;BME280;7697;51.630;7.484;2023-04-25T17:12:23;100800.84;;;11.49;62.26
15193;BME280;7697;51.630;7.484;2023-04-25T17:17:27;100802.91;;;11.53;62.25
15193;BME280;7697;51.630;7.484;2023-04-25T17:22:29;100813.50;;;11.47;61.20
15193;BME280;7697;51.630;7.484;2023-04-25T17:27:31;100835.34;;;11.49;62.01
15193;BME280;7697;51.630;7.484;2023-04-25T17:32:34;100840.81;;;11.41;60.72
15193;BME280;7697;51.630;7.484;2023-04-25T17:37:36;100834.03;;;11.25;60.40
15193;BME280;7697;51.630;7.484;2023-04-25T17:42:38;100830.44;;;11.05;61.32
15193;BME280;7697;51.630;7.484;2023-04-25T17:47:42;100840.94;;;10.91;61.20
15193;BME280;7697;51.630;7.484;2023-04-25T17:52:43;100836.84;;;10.82;61.66
15193;BME280;7697;51.630;7.484;2023-04-25T17:57:47;100848.00;;;10.78;62.10
15193;BME280;7697;51.630;7.484;2023-04-25T18:02:50;100847.31;;;10.63;62.55
15193;BME280;7697;51.630;7.484;2023-04-25T18:07:52;100864.28;;;10.47;62.46
15193;BME280;7697;51.630;7.484;2023-04-25T18:12:54;100874.19;;;10.38;64.06
15193;BME280;7697;51.630;7.484;2023-04-25T18:17:57;100882.06;;;10.32;63.15
15193;BME280;7697;51.630;7.484;2023-04-25T18:23:02;100873.53;;;10.15;62.59
15193;BME280;7697;51.630;7.484;2023-04-25T18:28:04;100889.53;;;10.07;62.89
15193;BME280;7697;51.630;7.484;2023-04-25T18:33:08;100891.44;;;9.92;63.03
15193;BME280;7697;51.630;7.484;2023-04-25T18:38:10;100900.28;;;9.84;63.45
15193;BME280;7697;51.630;7.484;2023-04-25T18:43:12;100908.78;;;9.79;63.94
15193;BME280;7697;51.630;7.484;2023-04-25T18:48:15;100915.19;;;9.70;64.76
15193;BME280;7697;51.630;7.484;2023-04-25T18:53:17;100923.47;;;9.67;64.48
15193;BME280;7697;51.630;7.484;2023-04-25T18:58:18;100927.22;;;9.58;64.99
15193;BME280;7697;51.630;7.484;2023-04-25T19:03:22;100926.78;;;9.55;65.08
15193;BME280;7697;51.630;7.484;2023-04-25T19:08:23;100939.34;;;9.53;65.99
15193;BME280;7697;51.630;7.484;2023-04-25T19:13:25;100945.91;;;9.42;66.26
15193;BME280;7697;51.630;7.484;2023-04-25T19:18:29;100947.75;;;9.41;66.99
15193;BME280;7697;51.630;7.484;2023-04-25T19:23:31;100957.78;;;9.46;68.17
15193;BME280;7697;51.630;7.484;2023-04-25T19:28:33;100956.31;;;9.44;68.53
15193;BME280;7697;51.630;7.484;2023-04-25T19:33:36;100963.69;;;9.33;69.11
15193;BME280;7697;51.630;7.484;2023-04-25T19:38:38;100970.88;;;9.25;69.66
15193;BME280;7697;51.630;7.484;2023-04-25T19:43:39;100980.44;;;9.11;69.81
15193;BME280;7697;51.630;7.484;2023-04-25T19:48:42;100975.41;;;9.01;70.40
15193;BME280;7697;51.630;7.484;2023-04-25T19:53:46;100990.03;;;8.89;70.48
15193;BME280;7697;51.630;7.484;2023-04-25T19:58:47;100993.91;;;8.79;71.93
15193;BME280;7697;51.630;7.484;2023-04-25T20:03:51;100984.06;;;8.73;71.57
15193;BME280;7697;51.630;7.484;2023-04-25T20:08:53;100990.22;;;8.65;72.38
15193;BME280;7697;51.630;7.484;2023-04-25T20:13:55;100991.88;;;8.66;71.73
15193;BME280;7697;51.630;7.484;2023-04-25T20:18:58;100998.03;;;8.58;72.40
15193;BME280;7697;51.630;7.484;2023-04-25T20:24:00;101005.81;;;8.52;72.77
15193;BME280;7697;51.630;7.484;2023-04-25T20:29:02;100998.59;;;8.46;72.46
15193;BME280;7697;51.630;7.484;2023-04-25T20:34:06;101003.78;;;8.39;72.31
15193;BME280;7697;51.630;7.484;2023-04-25T20:39:08;101013.53;;;8.31;72.55
15193;BME280;7697;51.630;7.484;2023-04-25T20:44:10;101006.97;;;8.18;73.12
15193;BME280;7697;51.630;7.484;2023-04-25T20:49:14;101004.72;;;8.07;73.08
15193;BME280;7697;51.630;7.484;2023-04-25T20:54:16;101012.00;;;7.97;73.30
15193;BME280;7697;51.630;7.484;2023-04-25T20:59:18;101012.09;;;7.81;74.43
15193;BME280;7697;51.630;7.484;2023-04-25T21:04:22;101012.78;;;7.75;74.11
15193;BME280;7697;51.630;7.484;2023-04-25T21:09:24;101018.06;;;7.67;74.83
15193;BME280;7697;51.630;7.484;2023-04-25T21:14:26;101006.25;;;7.54;74.09
15193;BME280;7697;51.630;7.484;2023-04-25T21:19:29;101013.31;;;7.54;74.76
15193;BME280;7697;51.630;7.484;2023-04-25T21:24:31;101013.03;;;7.41;75.23
15193;BME280;7697;51.630;7.484;2023-04-25T21:29:33;101018.63;;;7.38;75.74
15193;BME280;7697;51.630;7.484;2023-04-25T21:34:36;101025.22;;;7.26;75.49
15193;BME280;7697;51.630;7.484;2023-04-25T21:39:38;101021.16;;;7.15;75.89
15193;BME280;7697;51.630;7.484;2023-04-25T21:44:40;101024.41;;;7.09;76.21
15193;BME280;7697;51.630;7.484;2023-04-25T21:49:43;101023.75;;;6.99;77.09
15193;BME280;7697;51.630;7.484;2023-04-25T21:54:45;101024.75;;;6.90;76.92
15193;BME280;7697;51.630;7.484;2023-04-25T21:59:47;101032.31;;;6.85;77.68
15193;BME280;7697;51.630;7.484;2023-04-25T22:04:51;101032.16;;;6.78;78.01
15193;BME280;7697;51.630;7.484;2023-04-25T22:09:52;101037.56;;;6.68;77.27
15193;BME280;7697;51.630;7.484;2023-04-25T22:14:55;101036.59;;;6.61;78.63
15193;BME280;7697;51.630;7.484;2023-04-25T22:19:59;101039.69;;;6.57;78.79
15193;BME280;7697;51.630;7.484;2023-04-25T22:25:01;101043.44;;;6.54;79.04
15193;BME280;7697;51.630;7.484;2023-04-25T22:30:04;101045.44;;;6.44;78.30
15193;BME280;7697;51.630;7.484;2023-04-25T22:35:08;101048.00;;;6.36;79.43
15193;BME280;7697;51.630;7.484;2023-04-25T22:40:11;101053.91;;;6.30;79.83
15193;BME280;7697;51.630;7.484;2023-04-25T22:45:13;101057.88;;;6.26;79.38
15193;BME280;7697;51.630;7.484;2023-04-25T22:50:16;101073.94;;;6.23;80.26
15193;BME280;7697;51.630;7.484;2023-04-25T22:55:18;101068.66;;;6.15;80.18
15193;BME280;7697;51.630;7.484;2023-04-25T23:00:21;101070.94;;;6.10;79.77
15193;BME280;7697;51.630;7.484;2023-04-25T23:05:26;101071.56;;;6.03;79.69
15193;BME280;7697;51.630;7.484;2023-04-25T23:10:29;101074.00;;;5.97;80.68
15193;BME280;7697;51.630;7.484;2023-04-25T23:15:31;101072.50;;;5.94;80.84
15193;BME280;7697;51.630;7.484;2023-04-25T23:20:35;101081.22;;;5.95;81.29
15193;BME280;7697;51.630;7.484;2023-04-25T23:25:37;101087.44;;;5.94;81.03
15193;BME280;7697;51.630;7.484;2023-04-25T23:30:40;101091.53;;;5.88;81.49
15193;BME280;7697;51.630;7.484;2023-04-25T23:35:43;101093.47;;;5.86;81.26
15193;BME280;7697;51.630;7.484;2023-04-25T23:40:45;101090.09;;;5.76;81.19
15193;BME280;7697;51.630;7.484;2023-04-25T23:45:47;101103.94;;;5.78;81.99
15193;BME280;7697;51.630;7.484;2023-04-25T23:50:51;101105.19;;;5.74;82.08
15193;BME280;7697;51.630;7.484;2023-04-25T23:55:52;101100.88;;;5.65;82.09
